Time;durP1;ratioP1;P1;durP2;ratioP2;P2;SDS_P1;SDS_P2;PMS_P1;PMS_P2;Temp;Humidity;BMP_temperature;BMP_pressure;BME280_temperature;BME280_humidity;BME280_pressure;Samples;Min_cycle;Max_cycle;Signal;HPM_P1;HPM_P2
2024/02/24 00:03:02;;;;;;;2.10;1.30;;;;;;;;;;4985719;28;20213;-85
2024/02/24 00:06:07;;;;;;;2.50;1.20;;;;;;;;;;4996951;28;20185;-84
2024/02/24 00:09:11;;;;;;;1.20;1.10;;;;;;;;;;4998328;28;20186;-85
2024/02/24 00:12:16;;;;;;;1.57;1.20;;;;;;;;;;4988585;28;20209;-85
2024/02/24 00:15:20;;;;;;;2.10;1.47;;;;;;;;;;5012343;28;20630;-86
2024/02/24 00:18:25;;;;;;;1.67;1.50;;;;;;;;;;5002004;28;20331;-85
2024/02/24 00:21:29;;;;;;;2.30;1.47;;;;;;;;;;4990400;28;20185;-86
2024/02/24 00:24:33;;;;;;;1.77;1.50;;;;;;;;;;5003774;28;20233;-85
2024/02/24 00:27:37;;;;;;;2.40;1.60;;;;;;;;;;4990877;28;20540;-85
2024/02/24 00:30:41;;;;;;;2.17;1.67;;;;;;;;;;4989919;28;20573;-85
2024/02/24 00:33:45;;;;;;;2.33;1.70;;;;;;;;;;5012188;28;20608;-85
2024/02/24 00:36:50;;;;;;;2.00;1.80;;;;;;;;;;5001986;28;20541;-85
2024/02/24 00:39:54;;;;;;;1.80;1.60;;;;;;;;;;5001763;28;20553;-85
2024/02/24 00:42:58;;;;;;;1.67;1.57;;;;;;;;;;5001600;28;20209;-84
2024/02/24 00:46:03;;;;;;;3.03;1.73;;;;;;;;;;5002052;28;20189;-85
2024/02/24 00:49:08;;;;;;;2.10;1.90;;;;;;;;;;4989806;28;21080;-84
2024/02/24 00:52:13;;;;;;;2.00;1.73;;;;;;;;;;4990072;28;20218;-84
2024/02/24 00:55:17;;;;;;;2.87;2.00;;;;;;;;;;5000624;28;20552;-84
2024/02/24 00:58:21;;;;;;;1.90;1.70;;;;;;;;;;5001158;28;20545;-85
2024/02/24 01:01:25;;;;;;;2.70;2.00;;;;;;;;;;5000548;28;20553;-84
2024/02/24 01:04:30;;;;;;;2.40;1.93;;;;;;;;;;5001294;28;20687;-84
2024/02/24 01:07:34;;;;;;;1.87;1.70;;;;;;;;;;5001447;28;20546;-84
2024/02/24 01:10:38;;;;;;;2.47;1.63;;;;;;;;;;5001686;28;21069;-84
2024/02/24 01:13:43;;;;;;;1.90;1.63;;;;;;;;;;4989083;28;20605;-85
2024/02/24 01:16:47;;;;;;;2.53;1.93;;;;;;;;;;4989621;28;20545;-85
2024/02/24 01:19:52;;;;;;;2.50;1.80;;;;;;;;;;5011864;28;20549;-86
2024/02/24 01:22:59;;;;;;;1.90;1.70;;;;;;;;;;4988029;28;20632;-85
2024/02/24 01:26:03;;;;;;;3.43;1.90;;;;;;;;;;4988176;28;20545;-85
2024/02/24 01:29:08;;;;;;;2.03;1.83;;;;;;;;;;5000021;28;20537;-85
2024/02/24 01:32:12;;;;;;;4.93;2.07;;;;;;;;;;5000142;28;20214;-85
2024/02/24 01:35:16;;;;;;;2.20;2.00;;;;;;;;;;5000726;28;20549;-85
2024/02/24 01:38:21;;;;;;;2.70;2.00;;;;;;;;;;4999713;28;20556;-85
2024/02/24 01:41:25;;;;;;;2.93;2.30;;;;;;;;;;5000553;28;21090;-85
2024/02/24 01:44:29;;;;;;;2.20;2.00;;;;;;;;;;4988720;28;20624;-85
2024/02/24 01:47:33;;;;;;;2.30;1.93;;;;;;;;;;4990247;28;20545;-85
2024/02/24 01:50:40;;;;;;;2.90;2.10;;;;;;;;;;4999152;28;20541;-86
2024/02/24 01:53:45;;;;;;;2.40;2.20;;;;;;;;;;4999739;28;20608;-86
2024/02/24 01:56:49;;;;;;;2.53;2.10;;;;;;;;;;4988299;28;20549;-85
2024/02/24 01:59:56;;;;;;;2.60;2.27;;;;;;;;;;4988513;28;20181;-85
2024/02/24 02:03:00;;;;;;;2.53;2.20;;;;;;;;;;5011082;28;20616;-85
2024/02/24 02:06:04;;;;;;;3.10;2.07;;;;;;;;;;4999572;28;20545;-85
2024/02/24 02:09:09;;;;;;;4.07;2.50;;;;;;;;;;4998966;28;20541;-85
2024/02/24 02:12:13;;;;;;;2.83;2.40;;;;;;;;;;5010432;28;21148;-86
2024/02/24 02:15:18;;;;;;;3.13;2.33;;;;;;;;;;4988736;28;20545;-84
2024/02/24 02:18:22;;;;;;;2.80;2.20;;;;;;;;;;4999673;28;20541;-85
2024/02/24 02:21:27;;;;;;;3.77;2.20;;;;;;;;;;4999909;28;20182;-87
2024/02/24 02:24:31;;;;;;;3.70;2.27;;;;;;;;;;4999916;28;20647;-86
2024/02/24 02:27:36;;;;;;;2.40;2.20;;;;;;;;;;4988524;28;20549;-86
2024/02/24 02:30:40;;;;;;;3.70;2.30;;;;;;;;;;4999765;28;20903;-85
2024/02/24 02:33:44;;;;;;;2.93;2.63;;;;;;;;;;4998925;28;20617;-85
2024/02/24 02:36:48;;;;;;;2.90;2.33;;;;;;;;;;4998398;28;20897;-85
2024/02/24 02:39:53;;;;;;;3.93;2.40;;;;;;;;;;4988107;28;20541;-85
2024/02/24 02:42:58;;;;;;;3.07;2.60;;;;;;;;;;4987912;28;20612;-84
2024/02/24 02:46:02;;;;;;;4.43;2.70;;;;;;;;;;4998837;28;20545;-85
2024/02/24 02:49:06;;;;;;;3.07;2.53;;;;;;;;;;4998495;28;20549;-85
2024/02/24 02:52:10;;;;;;;2.40;2.20;;;;;;;;;;5010216;28;20616;-86
2024/02/24 02:55:17;;;;;;;2.50;2.30;;;;;;;;;;4999362;28;20557;-85
2024/02/24 02:58:21;;;;;;;5.37;2.50;;;;;;;;;;4998990;28;20549;-86
2024/02/24 03:01:25;;;;;;;4.77;2.63;;;;;;;;;;5020556;28;20545;-85
2024/02/24 03:04:31;;;;;;;4.00;2.70;;;;;;;;;;4987497;28;20993;-85
2024/02/24 03:07:35;;;;;;;5.00;2.77;;;;;;;;;;4987878;28;20545;-85
2024/02/24 03:10:39;;;;;;;3.93;2.83;;;;;;;;;;4999693;28;20541;-85
2024/02/24 03:13:44;;;;;;;4.53;3.00;;;;;;;;;;5009785;28;20608;-85
2024/02/24 03:16:49;;;;;;;3.10;2.80;;;;;;;;;;4987482;28;20545;-85
2024/02/24 03:19:53;;;;;;;3.77;3.13;;;;;;;;;;4998756;28;20541;-85
2024/02/24 03:22:57;;;;;;;3.67;3.13;;;;;;;;;;5044938;28;21218;-85
2024/02/24 03:26:03;;;;;;;3.33;3.03;;;;;;;;;;5002277;28;20651;-86
2024/02/24 03:29:07;;;;;;;4.37;3.73;;;;;;;;;;4990556;28;20549;-86
2024/02/24 03:32:11;;;;;;;3.87;3.43;;;;;;;;;;5001291;28;20592;-85
2024/02/24 03:35:16;;;;;;;3.87;3.47;;;;;;;;;;5001198;28;20541;-85
2024/02/24 03:38:19;;;;;;;4.37;3.47;;;;;;;;;;5000784;28;20911;-86
2024/02/24 03:41:25;;;;;;;4.03;3.40;;;;;;;;;;4989637;28;20549;-85
2024/02/24 03:44:30;;;;;;;4.73;3.73;;;;;;;;;;5012892;28;20616;-85
2024/02/24 03:47:34;;;;;;;4.67;3.80;;;;;;;;;;4990375;28;20545;-85
2024/02/24 03:50:38;;;;;;;4.37;3.47;;;;;;;;;;5000811;28;20537;-86
2024/02/24 03:53:42;;;;;;;4.50;3.80;;;;;;;;;;5000416;28;20997;-85
2024/02/24 03:56:49;;;;;;;4.83;3.70;;;;;;;;;;5001252;28;21073;-85
2024/02/24 03:59:54;;;;;;;6.20;3.97;;;;;;;;;;5012874;28;20545;-85
2024/02/24 04:02:59;;;;;;;4.63;3.80;;;;;;;;;;4989308;28;20608;-86
2024/02/24 04:06:05;;;;;;;4.47;3.50;;;;;;;;;;5001567;28;20541;-85
2024/02/24 04:09:09;;;;;;;4.23;3.80;;;;;;;;;;5000676;28;20545;-85
2024/02/24 04:12:13;;;;;;;5.47;4.33;;;;;;;;;;5012332;28;20593;-87
2024/02/24 04:15:21;;;;;;;5.57;4.37;;;;;;;;;;5000453;28;21081;-85
2024/02/24 04:18:26;;;;;;;5.03;4.53;;;;;;;;;;4989237;28;20557;-85
2024/02/24 04:21:31;;;;;;;6.00;4.70;;;;;;;;;;4989721;28;20542;-86
2024/02/24 04:24:35;;;;;;;9.43;5.40;;;;;;;;;;5011933;28;20636;-86
2024/02/24 04:27:39;;;;;;;6.67;5.37;;;;;;;;;;5000235;28;20545;-86
2024/02/24 04:30:43;;;;;;;7.00;5.07;;;;;;;;;;4989322;28;20541;-85
2024/02/24 04:33:47;;;;;;;6.50;5.50;;;;;;;;;;5011411;28;20656;-85
2024/02/24 04:36:52;;;;;;;5.17;4.50;;;;;;;;;;4989065;28;20537;-85
2024/02/24 04:39:56;;;;;;;7.20;5.10;;;;;;;;;;5000246;28;20549;-85
2024/02/24 04:43:01;;;;;;;5.40;4.70;;;;;;;;;;4988678;28;20617;-85
2024/02/24 04:46:06;;;;;;;6.20;4.97;;;;;;;;;;5036057;28;20561;-85
2024/02/24 04:49:09;;;;;;;6.33;5.33;;;;;;;;;;4988969;28;20540;-84
2024/02/24 04:52:13;;;;;;;7.60;5.20;;;;;;;;;;5012036;28;20593;-84
2024/02/24 04:55:18;;;;;;;5.97;5.00;;;;;;;;;;4988803;28;20541;-85
2024/02/24 04:58:24;;;;;;;5.43;4.70;;;;;;;;;;5002300;28;20541;-84
2024/02/24 05:01:36;;;;;;;5.43;4.67;;;;;;;;;;4992519;28;20541;-86
2024/02/24 05:04:40;;;;;;;5.97;4.80;;;;;;;;;;4992096;28;20612;-85
2024/02/24 05:07:45;;;;;;;5.73;4.80;;;;;;;;;;5003036;28;20545;-85
2024/02/24 05:10:50;;;;;;;6.57;5.43;;;;;;;;;;5038783;28;20545;-85
2024/02/24 05:13:54;;;;;;;8.90;5.30;;;;;;;;;;4991679;28;21214;-85
2024/02/24 05:16:58;;;;;;;6.90;5.10;;;;;;;;;;4992085;28;20549;-85
2024/02/24 05:20:03;;;;;;;7.13;5.00;;;;;;;;;;4994900;28;20549;-85
2024/02/24 05:23:07;;;;;;;8.13;5.10;;;;;;;;;;5005450;28;21207;-85
2024/02/24 05:26:25;;;;;;;6.73;5.20;;;;;;;;;;4982088;28;20545;-84
2024/02/24 05:29:29;;;;;;;6.10;5.00;;;;;;;;;;5016201;28;20537;-85
2024/02/24 05:32:33;;;;;;;6.03;4.83;;;;;;;;;;5003748;28;20604;-85
2024/02/24 05:35:39;;;;;;;6.13;4.60;;;;;;;;;;4981199;28;20541;-85
2024/02/24 05:38:44;;;;;;;5.60;4.60;;;;;;;;;;4992990;28;20545;-84
2024/02/24 05:41:49;;;;;;;9.00;5.77;;;;;;;;;;5004068;28;20537;-84
2024/02/24 05:44:53;;;;;;;16.37;8.43;;;;;;;;;;5003901;28;20531;-84
2024/02/24 05:47:58;;;;;;;15.47;7.60;;;;;;;;;;5016096;28;20541;-86
2024/02/24 05:51:04;;;;;;;14.57;8.00;;;;;;;;;;5006594;28;20545;-86
2024/02/24 05:54:08;;;;;;;16.33;7.83;;;;;;;;;;4998346;28;20652;-85
2024/02/24 05:57:12;;;;;;;10.03;7.07;;;;;;;;;;5000029;28;20537;-86
2024/02/24 06:00:18;;;;;;;9.33;5.37;;;;;;;;;;5022946;28;20545;-86
2024/02/24 06:03:22;;;;;;;10.10;5.50;;;;;;;;;;5011596;28;20622;-86
2024/02/24 06:06:27;;;;;;;7.33;6.00;;;;;;;;;;5001061;28;20538;-85
2024/02/24 06:09:31;;;;;;;7.03;4.67;;;;;;;;;;5022300;28;20536;-85
2024/02/24 06:12:36;;;;;;;5.97;4.90;;;;;;;;;;5023545;28;20592;-86
2024/02/24 06:15:41;;;;;;;5.80;4.67;;;;;;;;;;4988472;28;20548;-86
2024/02/24 06:18:46;;;;;;;5.33;4.37;;;;;;;;;;5022350;28;20537;-85
2024/02/24 06:21:52;;;;;;;5.60;4.57;;;;;;;;;;4998407;28;21085;-86
2024/02/24 06:24:57;;;;;;;5.57;4.40;;;;;;;;;;4998385;28;20545;-86
2024/02/24 06:28:02;;;;;;;4.90;4.20;;;;;;;;;;4987490;28;20545;-86
2024/02/24 06:31:08;;;;;;;5.53;4.67;;;;;;;;;;4998469;28;20549;-86
2024/02/24 06:34:14;;;;;;;4.47;3.93;;;;;;;;;;5008612;28;20656;-86
2024/02/24 06:37:18;;;;;;;5.87;4.73;;;;;;;;;;4996909;28;20537;-86
2024/02/24 06:40:22;;;;;;;8.17;6.33;;;;;;;;;;5007870;28;20541;-85
2024/02/24 06:43:26;;;;;;;5.37;4.47;;;;;;;;;;5019127;28;20624;-86
2024/02/24 06:46:30;;;;;;;4.63;3.60;;;;;;;;;;5019045;28;20545;-86
2024/02/24 06:49:35;;;;;;;5.07;3.87;;;;;;;;;;4995807;28;20553;-87
2024/02/24 06:52:39;;;;;;;5.77;3.97;;;;;;;;;;5006750;28;20545;-86
2024/02/24 06:55:43;;;;;;;6.17;4.20;;;;;;;;;;5018137;28;20541;-86
2024/02/24 06:58:47;;;;;;;5.77;4.57;;;;;;;;;;5005819;28;20541;-86
2024/02/24 07:01:54;;;;;;;4.80;3.60;;;;;;;;;;5005989;28;20565;-86
2024/02/24 07:04:58;;;;;;;5.40;3.87;;;;;;;;;;5006379;28;20533;-85
2024/02/24 07:08:03;;;;;;;4.37;3.63;;;;;;;;;;5017762;28;20545;-85
2024/02/24 07:11:07;;;;;;;3.53;2.90;;;;;;;;;;4993938;28;20541;-85
2024/02/24 07:14:11;;;;;;;4.07;2.87;;;;;;;;;;5004423;28;20640;-85
2024/02/24 07:17:15;;;;;;;3.10;2.80;;;;;;;;;;4992859;28;20549;-85
2024/02/24 07:20:20;;;;;;;5.23;3.10;;;;;;;;;;5003614;28;20541;-86
2024/02/24 07:23:24;;;;;;;3.33;3.03;;;;;;;;;;4981870;28;20639;-86
2024/02/24 07:26:28;;;;;;;4.03;3.50;;;;;;;;;;5004179;28;20541;-85
2024/02/24 07:29:32;;;;;;;4.90;3.40;;;;;;;;;;5003700;28;20178;-85
2024/02/24 07:32:36;;;;;;;4.40;3.73;;;;;;;;;;5002701;28;20185;-86
2024/02/24 07:35:41;;;;;;;4.07;3.67;;;;;;;;;;4981105;28;20512;-86
2024/02/24 07:38:45;;;;;;;4.50;3.93;;;;;;;;;;5002714;28;20627;-87
2024/02/24 07:41:54;;;;;;;5.93;4.93;;;;;;;;;;4991835;28;20189;-86
2024/02/24 07:44:58;;;;;;;4.30;3.90;;;;;;;;;;5003399;28;20182;-86
2024/02/24 07:48:06;;;;;;;5.40;4.90;;;;;;;;;;5014843;28;20186;-86
2024/02/24 07:51:10;;;;;;;5.43;3.97;;;;;;;;;;5003557;28;20530;-85
2024/02/24 07:54:14;;;;;;;4.37;3.50;;;;;;;;;;4991574;28;20229;-86
2024/02/24 07:57:18;;;;;;;5.70;3.40;;;;;;;;;;5003168;28;20185;-86
2024/02/24 08:00:24;;;;;;;4.10;3.60;;;;;;;;;;5002717;28;20182;-85
2024/02/24 08:03:29;;;;;;;3.57;3.27;;;;;;;;;;4991346;28;20214;-86
2024/02/24 08:06:34;;;;;;;3.20;2.90;;;;;;;;;;5014815;28;20182;-86
2024/02/24 08:09:38;;;;;;;3.13;2.80;;;;;;;;;;4980012;28;20178;-86
2024/02/24 08:12:44;;;;;;;3.87;3.23;;;;;;;;;;4991221;28;20228;-87
2024/02/24 08:15:51;;;;;;;3.47;2.87;;;;;;;;;;4969393;28;20174;-86
2024/02/24 08:18:55;;;;;;;3.13;2.40;;;;;;;;;;5026145;28;20190;-86
2024/02/24 08:22:03;;;;;;;3.33;2.33;;;;;;;;;;5002122;28;20181;-86
2024/02/24 08:25:08;;;;;;;2.57;1.83;;;;;;;;;;4979930;28;20528;-86
2024/02/24 08:28:13;;;;;;;2.87;2.43;;;;;;;;;;5013284;28;20186;-86
2024/02/24 08:31:17;;;;;;;6.17;2.70;;;;;;;;;;5003085;28;20185;-86
2024/02/24 08:34:21;;;;;;;3.40;2.90;;;;;;;;;;4994925;28;20225;-85
2024/02/24 08:37:26;;;;;;;2.00;1.80;;;;;;;;;;4984910;28;20189;-86
2024/02/24 08:40:32;;;;;;;2.03;1.60;;;;;;;;;;5006416;28;20189;-86
2024/02/24 08:43:36;;;;;;;2.70;2.50;;;;;;;;;;4994331;28;20581;-86
2024/02/24 08:46:40;;;;;;;2.33;2.13;;;;;;;;;;5005477;28;20177;-86
2024/02/24 08:49:44;;;;;;;2.67;1.43;;;;;;;;;;5005266;28;20185;-83
2024/02/24 08:52:49;;;;;;;1.33;1.23;;;;;;;;;;4983378;28;20213;-85
2024/02/24 08:55:53;;;;;;;1.27;1.13;;;;;;;;;;5017297;28;20174;-86
2024/02/24 08:58:58;;;;;;;1.67;1.10;;;;;;;;;;5004888;28;20186;-86
2024/02/24 09:05:33;;;;;;;1.70;1.60;;;;;;;;;;5005517;28;20173;-84
2024/02/24 09:08:37;;;;;;;2.63;1.50;;;;;;;;;;5005437;28;20182;-85
2024/02/24 09:11:43;;;;;;;1.47;1.10;;;;;;;;;;4993569;28;20182;-85
2024/02/24 09:14:47;;;;;;;2.67;1.53;;;;;;;;;;5015834;28;20225;-85
2024/02/24 09:17:51;;;;;;;1.50;1.40;;;;;;;;;;5016642;28;20185;-86
2024/02/24 09:20:56;;;;;;;2.93;2.30;;;;;;;;;;4993398;28;20182;-85
2024/02/24 09:24:00;;;;;;;1.67;1.57;;;;;;;;;;5004526;28;20233;-89
2024/02/24 09:27:05;;;;;;;3.40;2.60;;;;;;;;;;5003992;28;20182;-89
2024/02/24 09:30:10;;;;;;;2.47;1.70;;;;;;;;;;5003933;28;20523;-89
2024/02/24 09:33:14;;;;;;;1.83;1.50;;;;;;;;;;5003190;28;20221;-89
2024/02/24 09:36:18;;;;;;;1.77;1.43;;;;;;;;;;5003545;28;20185;-90
2024/02/24 09:39:22;;;;;;;1.70;0.97;;;;;;;;;;4992512;28;20178;-89
2024/02/24 09:42:27;;;;;;;1.57;0.80;;;;;;;;;;5003637;28;20189;-90
2024/02/24 09:45:34;;;;;;;5.20;0.60;;;;;;;;;;5003892;28;20178;-89
2024/02/24 09:48:38;;;;;;;0.63;0.60;;;;;;;;;;4991961;28;20516;-90
2024/02/24 09:51:45;;;;;;;0.70;0.57;;;;;;;;;;5002901;28;20186;-89
2024/02/24 09:54:49;;;;;;;0.93;0.50;;;;;;;;;;5003061;28;20209;-89
2024/02/24 09:57:55;;;;;;;1.03;0.70;;;;;;;;;;5015766;28;20527;-89
2024/02/24 10:00:59;;;;;;;0.87;0.60;;;;;;;;;;5003634;28;20190;-89
2024/02/24 10:04:04;;;;;;;1.57;0.90;;;;;;;;;;5003284;28;20212;-89
2024/02/24 10:07:08;;;;;;;1.50;0.77;;;;;;;;;;5003768;28;20189;-89
2024/02/24 10:10:14;;;;;;;1.77;1.30;;;;;;;;;;5003094;28;20523;-89
2024/02/24 10:13:19;;;;;;;4.30;2.70;;;;;;;;;;4992270;28;20221;-89
2024/02/24 10:16:23;;;;;;;1.57;1.00;;;;;;;;;;5014872;28;20178;-89
2024/02/24 10:19:30;;;;;;;1.47;0.90;;;;;;;;;;5003093;28;20189;-89
2024/02/24 10:22:37;;;;;;;0.90;0.80;;;;;;;;;;4991897;28;20177;-89
2024/02/24 10:25:42;;;;;;;1.00;0.63;;;;;;;;;;5002963;28;20178;-89
2024/02/24 10:28:46;;;;;;;1.07;0.60;;;;;;;;;;4981268;28;20182;-89
2024/02/24 10:31:50;;;;;;;1.77;0.80;;;;;;;;;;4992058;28;20189;-89
2024/02/24 10:34:55;;;;;;;9.33;6.80;;;;;;;;;;5002728;28;20213;-89
2024/02/24 10:38:02;;;;;;;2.70;2.17;;;;;;;;;;4987339;28;20185;-89
2024/02/24 10:41:10;;;;;;;1.00;0.70;;;;;;;;;;4991733;28;20182;-89
2024/02/24 10:44:14;;;;;;;2.20;1.00;;;;;;;;;;5002349;28;20217;-89
2024/02/24 10:47:18;;;;;;;2.40;0.80;;;;;;;;;;5002796;28;20190;-89
2024/02/24 10:50:22;;;;;;;1.07;0.70;;;;;;;;;;4980798;28;20519;-89
2024/02/24 10:53:30;;;;;;;1.33;0.77;;;;;;;;;;5014515;28;20213;-89
2024/02/24 10:56:34;;;;;;;1.00;0.60;;;;;;;;;;5013940;28;20626;-89
2024/02/24 10:59:38;;;;;;;0.70;0.50;;;;;;;;;;4991298;28;20185;-89
2024/02/24 11:02:42;;;;;;;0.47;0.40;;;;;;;;;;5013915;28;20181;-89
2024/02/24 11:05:48;;;;;;;1.83;0.40;;;;;;;;;;5014300;28;20186;-89
2024/02/24 11:08:54;;;;;;;0.90;0.57;;;;;;;;;;5014457;28;20527;-89
2024/02/24 11:12:07;;;;;;;0.97;0.53;;;;;;;;;;5014685;28;20622;-89
2024/02/24 11:15:24;;;;;;;0.50;0.50;;;;;;;;;;5001993;28;20197;-89
2024/02/24 11:18:46;;;;;;;1.17;0.53;;;;;;;;;;5014050;28;20186;-89
2024/02/24 11:22:01;;;;;;;0.90;0.60;;;;;;;;;;4980966;28;20174;-89
2024/02/24 11:25:06;;;;;;;0.87;0.50;;;;;;;;;;5013808;28;20178;-90
2024/02/24 11:28:18;;;;;;;0.70;0.50;;;;;;;;;;4991024;28;20178;-89
2024/02/24 11:31:25;;;;;;;0.80;0.40;;;;;;;;;;4991219;28;20186;-89
2024/02/24 11:34:34;;;;;;;1.30;0.90;;;;;;;;;;5002741;28;20233;-89
2024/02/24 11:37:39;;;;;;;2.27;1.70;;;;;;;;;;5002215;28;20186;-87
2024/02/24 11:40:46;;;;;;;3.20;0.70;;;;;;;;;;4991048;28;20618;-89
2024/02/24 11:43:52;;;;;;;0.73;0.50;;;;;;;;;;4990648;28;20217;-89
2024/02/24 11:46:57;;;;;;;3.30;1.60;;;;;;;;;;5002006;28;20185;-89
2024/02/24 11:50:01;;;;;;;2.53;1.73;;;;;;;;;;4990777;28;20185;-89
2024/02/24 11:53:06;;;;;;;3.27;1.80;;;;;;;;;;5001765;28;20566;-89
2024/02/24 11:56:10;;;;;;;2.30;1.00;;;;;;;;;;5001949;28;20551;-89
2024/02/24 11:59:15;;;;;;;0.50;0.50;;;;;;;;;;5016051;28;20618;-88
2024/02/24 12:02:20;;;;;;;2.03;1.37;;;;;;;;;;5003894;28;20177;-88
2024/02/24 12:05:25;;;;;;;1.27;0.90;;;;;;;;;;4991151;28;20177;-90
2024/02/24 12:08:29;;;;;;;1.83;0.90;;;;;;;;;;5002056;28;20186;-90
2024/02/24 12:11:33;;;;;;;1.00;0.50;;;;;;;;;;5001880;28;20181;-91
2024/02/24 12:14:37;;;;;;;0.80;0.70;;;;;;;;;;5001198;28;20221;-90
2024/02/24 12:17:43;;;;;;;4.60;2.87;;;;;;;;;;5013652;28;20516;-90
2024/02/24 12:20:50;;;;;;;0.80;0.50;;;;;;;;;;5001614;28;20619;-90
2024/02/24 12:23:56;;;;;;;2.10;0.57;;;;;;;;;;4990441;28;20232;-89
2024/02/24 12:27:00;;;;;;;2.13;0.90;;;;;;;;;;4990061;28;20519;-90
2024/02/24 12:30:06;;;;;;;2.87;0.83;;;;;;;;;;5001183;28;20181;-90
2024/02/24 12:33:14;;;;;;;1.73;1.23;;;;;;;;;;4990370;28;20216;-91
2024/02/24 12:36:24;;;;;;;3.43;1.27;;;;;;;;;;5001153;28;20685;-90
2024/02/24 12:39:32;;;;;;;2.10;0.70;;;;;;;;;;5001281;28;20182;-90
2024/02/24 12:42:39;;;;;;;1.00;0.67;;;;;;;;;;4979210;28;20185;-90
2024/02/24 12:45:44;;;;;;;8.37;4.70;;;;;;;;;;4990218;28;20178;-89
2024/02/24 12:48:48;;;;;;;2.53;0.90;;;;;;;;;;5000949;28;20531;-89
2024/02/24 12:51:52;;;;;;;0.90;0.50;;;;;;;;;;5001398;28;20181;-89
2024/02/24 12:54:56;;;;;;;2.73;1.43;;;;;;;;;;4990139;28;20217;-88
2024/02/24 12:58:00;;;;;;;7.00;4.07;;;;;;;;;;4990551;28;20646;-90
2024/02/24 13:01:06;;;;;;;2.40;1.20;;;;;;;;;;4989732;28;20186;-90
2024/02/24 13:04:11;;;;;;;1.63;0.60;;;;;;;;;;5001861;28;20225;-91
2024/02/24 13:07:15;;;;;;;0.90;0.60;;;;;;;;;;4990084;28;20181;-90
2024/02/24 13:10:20;;;;;;;0.90;0.70;;;;;;;;;;4978710;28;20182;-90
2024/02/24 13:13:24;;;;;;;2.07;0.43;;;;;;;;;;5000597;28;20700;-90
2024/02/24 13:16:28;;;;;;;0.77;0.60;;;;;;;;;;5013618;28;20210;-89
2024/02/24 13:19:32;;;;;;;5.23;3.33;;;;;;;;;;5014855;28;20186;-90
2024/02/24 13:22:58;;;;;;;2.57;0.80;;;;;;;;;;4982175;28;20177;-89
2024/02/24 13:26:02;;;;;;;4.50;3.20;;;;;;;;;;4981920;28;20209;-90
2024/02/24 13:29:09;;;;;;;1.87;0.90;;;;;;;;;;4992526;28;20182;-89
2024/02/24 13:32:13;;;;;;;4.10;2.00;;;;;;;;;;4992842;28;20178;-88
2024/02/24 13:35:17;;;;;;;1.03;0.70;;;;;;;;;;4992793;28;20209;-88
2024/02/24 13:38:21;;;;;;;4.90;0.73;;;;;;;;;;5003548;28;20182;-87
2024/02/24 13:41:25;;;;;;;2.93;0.80;;;;;;;;;;5003788;28;20527;-87
2024/02/24 13:44:29;;;;;;;1.47;0.50;;;;;;;;;;5003199;28;20567;-87
2024/02/24 13:47:34;;;;;;;3.27;0.70;;;;;;;;;;5016412;28;20615;-83
2024/02/24 13:50:38;;;;;;;2.43;0.50;;;;;;;;;;4994292;28;20520;-86
2024/02/24 13:53:42;;;;;;;3.03;0.50;;;;;;;;;;4993223;28;20701;-83
2024/02/24 13:56:47;;;;;;;2.03;0.60;;;;;;;;;;4981186;28;20213;-89
2024/02/24 13:59:51;;;;;;;0.80;0.50;;;;;;;;;;5003732;28;20178;-87
2024/02/24 14:02:56;;;;;;;0.90;0.57;;;;;;;;;;5003282;28;20213;-87
2024/02/24 14:06:03;;;;;;;4.20;0.60;;;;;;;;;;5016154;28;20186;-83
2024/02/24 14:09:08;;;;;;;1.20;0.50;;;;;;;;;;4992356;28;20182;-87
2024/02/24 14:12:12;;;;;;;0.67;0.50;;;;;;;;;;5003722;28;20622;-83
2024/02/24 14:15:19;;;;;;;0.77;0.43;;;;;;;;;;5005092;28;20209;-87
2024/02/24 14:18:23;;;;;;;0.63;0.60;;;;;;;;;;5014822;28;20185;-88
2024/02/24 14:21:28;;;;;;;1.43;0.70;;;;;;;;;;5002515;28;20535;-88
2024/02/24 14:24:39;;;;;;;0.70;0.43;;;;;;;;;;5002531;28;20229;-87
2024/02/24 14:27:43;;;;;;;1.27;0.67;;;;;;;;;;4982082;28;20185;-87
2024/02/24 14:30:47;;;;;;;0.83;0.70;;;;;;;;;;4991504;28;20182;-84
2024/02/24 14:33:52;;;;;;;0.80;0.50;;;;;;;;;;5008038;28;20224;-87
2024/02/24 14:36:57;;;;;;;0.50;0.50;;;;;;;;;;5010117;28;20213;-86
2024/02/24 14:40:01;;;;;;;0.93;0.40;;;;;;;;;;4980688;28;20527;-86
2024/02/24 14:43:05;;;;;;;2.77;0.50;;;;;;;;;;4993069;28;20220;-87
2024/02/24 14:46:10;;;;;;;0.60;0.50;;;;;;;;;;5002182;28;20182;-87
2024/02/24 14:49:13;;;;;;;1.33;0.53;;;;;;;;;;4991130;28;20178;-88
2024/02/24 14:52:18;;;;;;;0.83;0.50;;;;;;;;;;5049405;28;20515;-84
2024/02/24 14:55:22;;;;;;;2.33;0.83;;;;;;;;;;5009451;28;20218;-84
2024/02/24 14:58:27;;;;;;;1.67;0.50;;;;;;;;;;4987628;28;20181;-85
2024/02/24 15:01:31;;;;;;;1.23;0.73;;;;;;;;;;4998617;28;20185;-84
2024/02/24 15:04:35;;;;;;;0.80;0.40;;;;;;;;;;5010226;28;20217;-84
2024/02/24 15:07:40;;;;;;;1.07;0.50;;;;;;;;;;4998320;28;20173;-85
2024/02/24 15:10:43;;;;;;;1.00;0.50;;;;;;;;;;4998329;28;20546;-84
2024/02/24 15:13:47;;;;;;;2.03;0.70;;;;;;;;;;4996942;28;20217;-88
2024/02/24 15:16:52;;;;;;;3.70;0.70;;;;;;;;;;5001253;28;20693;-87
2024/02/24 15:19:56;;;;;;;0.90;0.60;;;;;;;;;;5013939;28;20181;-86
2024/02/24 15:23:00;;;;;;;0.60;0.50;;;;;;;;;;4990951;28;20221;-87
2024/02/24 15:26:04;;;;;;;0.40;0.37;;;;;;;;;;5002358;28;20543;-85
2024/02/24 15:29:08;;;;;;;1.07;0.50;;;;;;;;;;5002064;28;20186;-86
2024/02/24 15:32:12;;;;;;;1.00;0.63;;;;;;;;;;5002144;28;20185;-81
2024/02/24 15:35:16;;;;;;;0.87;0.60;;;;;;;;;;5014401;28;20186;-84
2024/02/24 15:38:20;;;;;;;0.60;0.50;;;;;;;;;;5001290;28;20185;-84
2024/02/24 15:41:24;;;;;;;0.93;0.50;;;;;;;;;;5000562;28;20177;-85
2024/02/24 15:44:29;;;;;;;1.80;0.50;;;;;;;;;;4990049;28;20221;-85
2024/02/24 15:47:35;;;;;;;1.80;0.60;;;;;;;;;;5001193;28;20627;-85
2024/02/24 15:50:40;;;;;;;1.37;0.83;;;;;;;;;;4990588;28;20185;-85
2024/02/24 15:53:44;;;;;;;5.37;1.93;;;;;;;;;;4989615;28;20217;-85
2024/02/24 15:56:52;;;;;;;1.70;1.00;;;;;;;;;;4989833;28;20214;-84
2024/02/24 15:59:56;;;;;;;1.10;0.60;;;;;;;;;;4989947;28;20182;-86
2024/02/24 16:03:00;;;;;;;1.27;0.70;;;;;;;;;;5000671;28;20705;-84
2024/02/24 16:06:06;;;;;;;1.87;0.57;;;;;;;;;;5012722;28;20177;-86
2024/02/24 16:09:12;;;;;;;1.10;0.60;;;;;;;;;;5000852;28;20182;-85
2024/02/24 16:12:16;;;;;;;0.80;0.57;;;;;;;;;;5000672;28;20181;-86
2024/02/24 16:15:20;;;;;;;1.17;0.70;;;;;;;;;;4990167;28;20182;-87
2024/02/24 16:18:24;;;;;;;2.83;0.80;;;;;;;;;;5000850;28;20181;-87
2024/02/24 16:21:28;;;;;;;1.40;0.60;;;;;;;;;;5001731;28;20177;-86
2024/02/24 16:24:32;;;;;;;1.20;0.60;;;;;;;;;;5001062;28;20221;-86
2024/02/24 16:27:36;;;;;;;7.67;0.60;;;;;;;;;;4989886;28;20178;-85
2024/02/24 16:30:40;;;;;;;2.93;0.70;;;;;;;;;;4979032;28;20183;-85
2024/02/24 16:33:44;;;;;;;0.97;0.60;;;;;;;;;;5012002;28;20224;-85
2024/02/24 16:36:49;;;;;;;1.27;0.60;;;;;;;;;;4988829;28;20217;-85
2024/02/24 16:39:56;;;;;;;1.40;0.53;;;;;;;;;;4989415;28;20225;-86
2024/02/24 16:43:01;;;;;;;0.70;0.63;;;;;;;;;;5000193;28;20221;-86
2024/02/24 16:46:05;;;;;;;0.77;0.60;;;;;;;;;;5000519;28;20182;-85
2024/02/24 16:49:09;;;;;;;1.03;0.60;;;;;;;;;;4989101;28;20186;-85
2024/02/24 16:52:14;;;;;;;0.97;0.50;;;;;;;;;;4988694;28;20181;-85
2024/02/24 16:55:23;;;;;;;0.87;0.70;;;;;;;;;;5003233;28;20178;-85
2024/02/24 16:58:27;;;;;;;1.67;0.80;;;;;;;;;;4992126;28;20534;-85
2024/02/24 17:01:32;;;;;;;1.17;0.83;;;;;;;;;;4992360;28;20650;-85
2024/02/24 17:04:36;;;;;;;1.40;0.80;;;;;;;;;;5003051;28;20221;-84
2024/02/24 17:07:40;;;;;;;1.37;0.90;;;;;;;;;;5015077;28;20527;-85
2024/02/24 17:10:45;;;;;;;2.03;0.80;;;;;;;;;;4991885;28;20198;-85
2024/02/24 17:13:49;;;;;;;2.03;1.30;;;;;;;;;;4992065;28;20213;-85
2024/02/24 17:16:56;;;;;;;2.27;1.13;;;;;;;;;;4980230;28;20701;-85
2024/02/24 17:20:00;;;;;;;3.60;0.80;;;;;;;;;;5014534;28;20182;-85
2024/02/24 17:23:09;;;;;;;2.07;1.00;;;;;;;;;;4980513;28;20217;-85
2024/02/24 17:26:15;;;;;;;2.50;1.20;;;;;;;;;;5002628;28;20170;-85
2024/02/24 17:29:19;;;;;;;2.17;1.10;;;;;;;;;;5002682;28;20185;-85
2024/02/24 17:32:25;;;;;;;1.17;0.90;;;;;;;;;;5014977;28;20186;-85
2024/02/24 17:35:30;;;;;;;4.17;1.00;;;;;;;;;;5014752;28;20182;-85
2024/02/24 17:38:37;;;;;;;1.47;1.00;;;;;;;;;;4992532;28;20186;-85
2024/02/24 17:41:43;;;;;;;2.00;0.90;;;;;;;;;;5002936;28;20638;-85
2024/02/24 17:44:49;;;;;;;1.53;1.00;;;;;;;;;;4980852;28;20224;-85
2024/02/24 17:47:53;;;;;;;1.33;1.00;;;;;;;;;;4991794;28;20182;-86
2024/02/24 17:50:59;;;;;;;2.10;1.00;;;;;;;;;;5002758;28;20181;-86
2024/02/24 17:54:02;;;;;;;1.33;1.10;;;;;;;;;;4991821;28;20679;-86
2024/02/24 17:57:08;;;;;;;1.87;1.10;;;;;;;;;;4980174;28;20695;-85
2024/02/24 18:00:14;;;;;;;1.67;1.20;;;;;;;;;;5002390;28;20193;-85
2024/02/24 18:03:19;;;;;;;1.60;1.10;;;;;;;;;;5002485;28;20221;-86
2024/02/24 18:06:25;;;;;;;3.13;1.40;;;;;;;;;;5003127;28;20189;-86
2024/02/24 18:09:30;;;;;;;2.07;1.30;;;;;;;;;;5002941;28;20186;-85
2024/02/24 18:12:35;;;;;;;4.47;1.33;;;;;;;;;;5002491;28;20181;-85
2024/02/24 18:15:41;;;;;;;2.77;1.30;;;;;;;;;;4992448;28;20185;-85
2024/02/24 18:18:45;;;;;;;2.27;1.10;;;;;;;;;;4991412;28;20178;-84
2024/02/24 18:21:50;;;;;;;1.97;1.43;;;;;;;;;;4991539;28;20181;-85
2024/02/24 18:24:54;;;;;;;1.60;1.23;;;;;;;;;;4980865;28;20209;-85
2024/02/24 18:27:58;;;;;;;2.63;1.33;;;;;;;;;;4980219;28;20182;-85
2024/02/24 18:31:02;;;;;;;2.30;1.37;;;;;;;;;;4980233;28;20186;-86
2024/02/24 18:34:07;;;;;;;3.80;1.30;;;;;;;;;;4990930;28;20221;-85